Tonopah Airport
KTPH : now visible

Airfield :











YOU CAN JOIN US ON...

 
LOGIN :

Register | Disclaimer

   EN    FR    IT 

 









Legend :    VFR   Marginal VFR   IFR   Intensive IFR   Very Intensive IFR
Visi :
Ceiling :
>= 8 km
>= 3000ft
5 to 8 km
1000 to 3000 ft
1500m to 5 km
500 to 1000 ft
800 to 1500m
200 to 500 ft
< 800m
< 200 ft
Symbols :   Thunderstorms  Fog  Heavy snow  Heavy precipitations  Wind > 20 kt






- Airport Elevation : 5430 ft


KTPH - Tonopah

CURRENT METAR :
  • 110556Z AUTO 36008KT 10SM CLR M01/M04 A3024 RMK AO2 SLP254 T10111039 10044 21017 57004

EXPIRED METARs :
  • 110456Z AUTO 36009KT 10SM CLR M01/M04 A3024 RMK AO2 SLP258 T10111039
  • 110356Z AUTO 01007KT 10SM CLR M02/M04 A3025 RMK AO2 SLP265 T10171039

TAF KTPH
Valid from the 11 at 06:00 until the 12 at 06:00 UTC


110535Z 1106/1206 36007KT P6SM BKN100 BKN200
FM111800 33006KT P6SM SCT080 SCT250



MET'MAP, your aeronautical weather chart ! - Copyright ORBIFLY December 2007 - Disclaimer

ORBIFLY MET'MAP TEAM :

Programming & Development : Alexandra Zaïnal
Concept & original design : Baudouin d'Aumeries
Assistance for programming : Marc-Olivier Méhu
Technical & hardware support : Manuel Goepfert

Contact : metmap@orbifly.com




SOURCES & CREDITS :

   NOAA       Earth
Advisory